Aérodrome :
LOGIN :

S'inscrire | Disclaimer

   EN    FR    IT 

 










Légende :    VFR   VFR Marginal   IFR   IFR Intensif   IFR Très Intensif
Visi : 
Plafond : 
>= 8 km
>= 3000ft
5 à 8 km
1000 à 3000 ft
1500m à 5 km
500 à 1000 ft
800 à 1500m
200 à 500 ft
< 800m
< 200 ft
Symboles :   Orages  Brouillard  Fortes neiges  Fortes précipitations  Vent > 20 kt
SIGMETs :   Divers  Orages  Givrage  Turbulence  Onde Orograph.  Cendres Volcan.







- Altitude de l'aérodrome : 935 ft


EBFS - Florennes

DERNIER METAR :
  • 190525Z VRB01KT 5000 FEW040 M00/M01 Q1026 WHT WHT BECMG BLU

METARs EXPIRÉS :
  • 190504Z VRB01KT 5000 FEW040 M01/M02 Q1026 WHT
  • 190455Z AUTO VRB02KT 4500 BR BKN200/// M01/M02 Q1026 GRN
  • 190436Z AUTO VRB01KT 4400 BKN210/// M01/M02 Q1026 GRN
  • 190425Z AUTO VRB01KT 7000 BKN210/// M01/M02 Q1026 WHT
  • 190413Z AUTO VRB01KT 7000 BKN210/// M02/M03 Q1026 WHT
  • 190355Z AUTO VRB01KT 9999 BKN210/// M01/M02 Q1026 BLU
  • 190347Z AUTO VRB01KT 9999 FEW023/// BKN220/// M00/M02 Q1025 BLU
  • 190333Z AUTO VRB01KT 7000 FEW022/// SCT036/// BKN220/// M01/M02 Q1026 WHT
  • 190255Z AUTO VRB01KT 9999 FEW040/// BKN220/// M00/M02 Q1025 BLU
  • 190225Z AUTO VRB01KT 9999 BKN210/// 00/M01 Q1025 BLU

TAF TAF EBFS
Valide du 18 à 19h jusqu'au 19 à 07h UTC


181541Z 1819/1907 31007KT 9999 FEW015 SCT025 BKN180
TEMPO 1819/1920 FEW010 SCT020 BKN160
BECMG 1820/1822 02004KT FEW025 SCT140
BECMG 1823/1901 VRB02KT 4000 BR
PROB30
TEMPO 1903/1906 2000 BR
Pas de NOTAMs connus pour ce terrain.



MET'MAP, la Météo Aéronautique d'un coup d'oeil ! - Copyright ORBIFLY Décembre 2007 - Disclaimer

ORBIFLY MET'MAP TEAM :

Programmation & Développement : Alexandra Zaïnal
Conception & Développement : Baudouin d'Aumeries
Co-Programmation & Développement : Marc-Olivier Méhu
Soutien technique & logistique : Manuel Goepfert

Contact : metmap@orbifly.com




SOURCES & CREDITS :

   NOAA